Terminal Aerodrome Forecast
Issued by NWS Missoula, MT

Home | Current Version | Previous Version | Text Only | Print | Product List | Glossary On
Versions: 1 2 3 4 5 6 7 8 9 10 11 12 13 14 15 16 17
365
FTUS45 KMSO 222330
TAFMSO
TAF
KMSO 222330Z 2300/2324 VRB05KT P6SM VCSH SCT045 BKN060
     FM230100 27007KT 3SM -SN SCT030 BKN050
      TEMPO 2301/2302 1SM -SN BKN020
     FM230230 VRB05KT 6SM -SHSN BKN050
     FM230600 VRB04KT P6SM SCT002 BKN050=

USA.gov is the U.S. government's official web portal to all federal, state and local government web resources and services.